Donald, Wisconsin
Current Conditions -  °F | °C
As of 2:55 AM on Friday 24 Oct 2014 (Local Time) from KRCX Reporting Station
Haze Haze  
Wind Chill: 46°   Ceiling: 100
Heat Index: 49°   Visibility: 0.75mi
Dew Point: 48°   Wind: 6mph
Humidity: 97%   Direction: 180°S
Pressure: 30.01"   Gusts: NA
Location:  45.2123°N, 90.8091°W
Report Text: KRCX 240755Z AUTO 18005KT 3/4SM BR OVC001 09/09 A3001 RMK AO2 T00930088
Loading
Personal Weather Stations






























Interactive Weather Map
Tropical Storm Tracking
New forecast layout! Learn more

10-Day Weather Forecast

Advertisements
Track Severe Weather on mobile